sensor_id;sensor_type;location;lat;lon;timestamp;pressure;altitude;pressure_sealevel;temperature;humidity
56070;BME280;41944;52.078;-0.058;2024-02-16T00:00:18;100286.74;;;13.82;100.00
56070;BME280;41944;52.078;-0.058;2024-02-16T00:02:45;100286.38;;;13.71;100.00
56070;BME280;41944;52.078;-0.058;2024-02-16T00:05:12;100284.20;;;13.69;100.00
56070;BME280;41944;52.078;-0.058;2024-02-16T00:07:40;100280.03;;;13.51;100.00
56070;BME280;41944;52.078;-0.058;2024-02-16T00:10:08;100288.47;;;13.46;100.00
56070;BME280;41944;52.078;-0.058;2024-02-16T00:12:35;100281.36;;;13.29;100.00
56070;BME280;41944;52.078;-0.058;2024-02-16T00:15:03;100277.95;;;13.19;100.00
56070;BME280;41944;52.078;-0.058;2024-02-16T00:17:30;100271.61;;;13.38;100.00
56070;BME280;41944;52.078;-0.058;2024-02-16T00:19:57;100271.15;;;13.43;100.00
56070;BME280;41944;52.078;-0.058;2024-02-16T00:22:25;100269.92;;;13.34;100.00
56070;BME280;41944;52.078;-0.058;2024-02-16T00:24:52;100269.46;;;13.23;100.00
56070;BME280;41944;52.078;-0.058;2024-02-16T00:27:19;100272.88;;;13.09;100.00
56070;BME280;41944;52.078;-0.058;2024-02-16T00:29:46;100272.92;;;13.08;100.00
56070;BME280;41944;52.078;-0.058;2024-02-16T00:32:14;100276.67;;;13.05;100.00
56070;BME280;41944;52.078;-0.058;2024-02-16T00:34:42;100282.84;;;12.96;100.00
56070;BME280;41944;52.078;-0.058;2024-02-16T00:37:08;100281.76;;;13.03;100.00
56070;BME280;41944;52.078;-0.058;2024-02-16T00:39:36;100290.90;;;12.99;100.00
56070;BME280;41944;52.078;-0.058;2024-02-16T00:42:03;100289.14;;;12.89;100.00
56070;BME280;41944;52.078;-0.058;2024-02-16T00:44:30;100291.78;;;12.94;100.00
56070;BME280;41944;52.078;-0.058;2024-02-16T00:46:57;100288.56;;;13.05;100.00
56070;BME280;41944;52.078;-0.058;2024-02-16T00:49:24;100288.05;;;13.00;100.00
56070;BME280;41944;52.078;-0.058;2024-02-16T00:51:51;100291.59;;;13.02;100.00
56070;BME280;41944;52.078;-0.058;2024-02-16T00:54:18;100294.21;;;12.99;100.00
56070;BME280;41944;52.078;-0.058;2024-02-16T00:56:45;100303.79;;;12.92;100.00
56070;BME280;41944;52.078;-0.058;2024-02-16T00:59:13;100304.03;;;12.95;100.00
56070;BME280;41944;52.078;-0.058;2024-02-16T01:01:41;100304.18;;;12.99;100.00
56070;BME280;41944;52.078;-0.058;2024-02-16T01:04:08;100296.59;;;13.21;100.00
56070;BME280;41944;52.078;-0.058;2024-02-16T01:06:35;100302.60;;;13.08;100.00
56070;BME280;41944;52.078;-0.058;2024-02-16T01:09:01;100296.86;;;13.07;100.00
56070;BME280;41944;52.078;-0.058;2024-02-16T01:11:28;100300.76;;;13.14;100.00
56070;BME280;41944;52.078;-0.058;2024-02-16T01:13:56;100295.13;;;13.27;100.00
56070;BME280;41944;52.078;-0.058;2024-02-16T01:16:23;100309.64;;;13.22;100.00
56070;BME280;41944;52.078;-0.058;2024-02-16T01:18:50;100309.00;;;13.28;100.00
56070;BME280;41944;52.078;-0.058;2024-02-16T01:21:17;100306.95;;;13.34;100.00
56070;BME280;41944;52.078;-0.058;2024-02-16T01:23:44;100305.78;;;13.31;100.00
56070;BME280;41944;52.078;-0.058;2024-02-16T01:26:11;100311.85;;;13.38;100.00
56070;BME280;41944;52.078;-0.058;2024-02-16T01:28:38;100314.23;;;13.32;100.00
56070;BME280;41944;52.078;-0.058;2024-02-16T01:31:05;100316.13;;;13.50;100.00
56070;BME280;41944;52.078;-0.058;2024-02-16T01:33:32;100320.00;;;13.52;100.00
56070;BME280;41944;52.078;-0.058;2024-02-16T01:35:59;100317.67;;;13.43;100.00
56070;BME280;41944;52.078;-0.058;2024-02-16T01:38:26;100323.02;;;13.52;100.00
56070;BME280;41944;52.078;-0.058;2024-02-16T01:40:53;100322.15;;;13.66;100.00
56070;BME280;41944;52.078;-0.058;2024-02-16T01:43:21;100323.24;;;13.74;100.00
56070;BME280;41944;52.078;-0.058;2024-02-16T01:45:48;100323.83;;;13.60;100.00
56070;BME280;41944;52.078;-0.058;2024-02-16T01:48:15;100330.26;;;13.76;100.00
56070;BME280;41944;52.078;-0.058;2024-02-16T01:50:43;100330.38;;;13.59;100.00
56070;BME280;41944;52.078;-0.058;2024-02-16T01:53:11;100319.54;;;13.64;100.00
56070;BME280;41944;52.078;-0.058;2024-02-16T01:55:39;100318.00;;;13.76;100.00
56070;BME280;41944;52.078;-0.058;2024-02-16T01:58:06;100316.52;;;13.83;100.00
56070;BME280;41944;52.078;-0.058;2024-02-16T02:00:33;100314.66;;;13.60;100.00
56070;BME280;41944;52.078;-0.058;2024-02-16T02:03:00;100315.60;;;13.42;100.00
56070;BME280;41944;52.078;-0.058;2024-02-16T02:05:27;100319.95;;;13.50;100.00
56070;BME280;41944;52.078;-0.058;2024-02-16T02:07:54;100327.18;;;13.46;100.00
56070;BME280;41944;52.078;-0.058;2024-02-16T02:10:21;100335.55;;;13.49;100.00
56070;BME280;41944;52.078;-0.058;2024-02-16T02:12:48;100339.55;;;13.48;100.00
56070;BME280;41944;52.078;-0.058;2024-02-16T02:15:15;100348.83;;;13.54;100.00
56070;BME280;41944;52.078;-0.058;2024-02-16T02:17:42;100355.27;;;13.51;100.00
56070;BME280;41944;52.078;-0.058;2024-02-16T02:20:10;100344.03;;;13.67;100.00
56070;BME280;41944;52.078;-0.058;2024-02-16T02:22:37;100338.50;;;13.64;100.00
56070;BME280;41944;52.078;-0.058;2024-02-16T02:25:04;100345.65;;;13.66;100.00
56070;BME280;41944;52.078;-0.058;2024-02-16T02:27:32;100358.39;;;13.66;100.00
56070;BME280;41944;52.078;-0.058;2024-02-16T02:29:59;100364.60;;;13.67;100.00
56070;BME280;41944;52.078;-0.058;2024-02-16T02:32:26;100359.96;;;13.63;100.00
56070;BME280;41944;52.078;-0.058;2024-02-16T02:34:53;100358.38;;;13.55;100.00
56070;BME280;41944;52.078;-0.058;2024-02-16T02:37:19;100359.23;;;13.36;100.00
56070;BME280;41944;52.078;-0.058;2024-02-16T02:39:46;100364.46;;;13.50;100.00
56070;BME280;41944;52.078;-0.058;2024-02-16T02:42:13;100364.12;;;13.59;100.00
56070;BME280;41944;52.078;-0.058;2024-02-16T02:44:41;100359.48;;;13.70;100.00
56070;BME280;41944;52.078;-0.058;2024-02-16T02:47:08;100360.69;;;13.82;100.00
56070;BME280;41944;52.078;-0.058;2024-02-16T02:49:35;100368.21;;;13.65;100.00
56070;BME280;41944;52.078;-0.058;2024-02-16T02:52:02;100375.64;;;13.63;100.00
56070;BME280;41944;52.078;-0.058;2024-02-16T02:54:28;100379.54;;;13.50;100.00
56070;BME280;41944;52.078;-0.058;2024-02-16T02:56:55;100370.21;;;13.46;100.00
56070;BME280;41944;52.078;-0.058;2024-02-16T02:59:22;100371.41;;;13.41;100.00
56070;BME280;41944;52.078;-0.058;2024-02-16T03:01:49;100374.20;;;13.44;100.00
56070;BME280;41944;52.078;-0.058;2024-02-16T03:04:16;100381.21;;;13.41;100.00
56070;BME280;41944;52.078;-0.058;2024-02-16T03:06:43;100387.70;;;13.36;100.00
56070;BME280;41944;52.078;-0.058;2024-02-16T03:09:11;100388.57;;;13.42;100.00
56070;BME280;41944;52.078;-0.058;2024-02-16T03:11:38;100385.15;;;13.48;100.00
56070;BME280;41944;52.078;-0.058;2024-02-16T03:14:05;100373.56;;;13.46;100.00
56070;BME280;41944;52.078;-0.058;2024-02-16T03:16:32;100368.62;;;13.65;100.00
56070;BME280;41944;52.078;-0.058;2024-02-16T03:19:00;100383.25;;;13.70;100.00
56070;BME280;41944;52.078;-0.058;2024-02-16T03:21:27;100385.42;;;13.72;100.00
56070;BME280;41944;52.078;-0.058;2024-02-16T03:23:54;100392.60;;;13.60;100.00
56070;BME280;41944;52.078;-0.058;2024-02-16T03:26:20;100395.58;;;13.67;100.00
56070;BME280;41944;52.078;-0.058;2024-02-16T03:28:48;100397.81;;;13.59;100.00
56070;BME280;41944;52.078;-0.058;2024-02-16T03:31:17;100395.92;;;13.60;100.00
56070;BME280;41944;52.078;-0.058;2024-02-16T03:33:44;100399.56;;;13.56;100.00
56070;BME280;41944;52.078;-0.058;2024-02-16T03:36:12;100404.85;;;13.46;100.00
56070;BME280;41944;52.078;-0.058;2024-02-16T03:38:41;100411.69;;;13.33;100.00
56070;BME280;41944;52.078;-0.058;2024-02-16T03:41:09;100413.53;;;13.31;100.00
56070;BME280;41944;52.078;-0.058;2024-02-16T03:43:38;100413.67;;;13.23;100.00
56070;BME280;41944;52.078;-0.058;2024-02-16T03:46:06;100410.24;;;13.15;100.00
56070;BME280;41944;52.078;-0.058;2024-02-16T03:48:32;100413.74;;;12.93;100.00
56070;BME280;41944;52.078;-0.058;2024-02-16T03:50:59;100418.08;;;12.84;100.00
56070;BME280;41944;52.078;-0.058;2024-02-16T03:53:26;100428.22;;;12.87;100.00
56070;BME280;41944;52.078;-0.058;2024-02-16T03:55:53;100435.04;;;12.77;100.00
56070;BME280;41944;52.078;-0.058;2024-02-16T03:58:21;100443.09;;;12.67;100.00
56070;BME280;41944;52.078;-0.058;2024-02-16T04:00:48;100459.67;;;12.62;100.00
56070;BME280;41944;52.078;-0.058;2024-02-16T04:03:14;100465.61;;;12.65;100.00
56070;BME280;41944;52.078;-0.058;2024-02-16T04:05:42;100471.23;;;12.64;100.00
56070;BME280;41944;52.078;-0.058;2024-02-16T04:08:09;100481.45;;;12.63;100.00
56070;BME280;41944;52.078;-0.058;2024-02-16T04:10:36;100491.63;;;12.66;100.00
56070;BME280;41944;52.078;-0.058;2024-02-16T04:13:03;100499.34;;;12.72;100.00
56070;BME280;41944;52.078;-0.058;2024-02-16T04:15:30;100508.08;;;12.76;100.00
56070;BME280;41944;52.078;-0.058;2024-02-16T04:17:57;100515.26;;;12.77;100.00
56070;BME280;41944;52.078;-0.058;2024-02-16T04:20:24;100516.62;;;12.58;100.00
56070;BME280;41944;52.078;-0.058;2024-02-16T04:22:51;100520.40;;;12.76;100.00
56070;BME280;41944;52.078;-0.058;2024-02-16T04:25:18;100522.20;;;12.74;100.00
56070;BME280;41944;52.078;-0.058;2024-02-16T04:27:45;100526.51;;;12.71;100.00
56070;BME280;41944;52.078;-0.058;2024-02-16T04:30:12;100535.12;;;12.87;100.00
56070;BME280;41944;52.078;-0.058;2024-02-16T04:32:38;100539.45;;;12.83;100.00
56070;BME280;41944;52.078;-0.058;2024-02-16T04:35:06;100544.77;;;12.72;100.00
56070;BME280;41944;52.078;-0.058;2024-02-16T04:37:33;100556.71;;;12.73;100.00
56070;BME280;41944;52.078;-0.058;2024-02-16T04:40:00;100563.51;;;12.88;100.00
56070;BME280;41944;52.078;-0.058;2024-02-16T04:42:27;100561.06;;;12.79;100.00
56070;BME280;41944;52.078;-0.058;2024-02-16T04:44:54;100568.58;;;12.80;100.00
56070;BME280;41944;52.078;-0.058;2024-02-16T04:47:21;100572.42;;;12.91;100.00
56070;BME280;41944;52.078;-0.058;2024-02-16T04:49:47;100572.84;;;12.93;100.00
56070;BME280;41944;52.078;-0.058;2024-02-16T04:52:14;100569.87;;;13.00;100.00
56070;BME280;41944;52.078;-0.058;2024-02-16T04:54:42;100563.47;;;12.94;100.00
56070;BME280;41944;52.078;-0.058;2024-02-16T04:57:09;100555.74;;;13.05;100.00
56070;BME280;41944;52.078;-0.058;2024-02-16T04:59:36;100544.60;;;12.87;100.00
56070;BME280;41944;52.078;-0.058;2024-02-16T05:02:03;100513.17;;;12.87;100.00
56070;BME280;41944;52.078;-0.058;2024-02-16T05:04:30;100510.06;;;12.56;100.00
56070;BME280;41944;52.078;-0.058;2024-02-16T05:06:57;100512.62;;;12.47;100.00
56070;BME280;41944;52.078;-0.058;2024-02-16T05:09:24;100502.04;;;12.36;100.00
56070;BME280;41944;52.078;-0.058;2024-02-16T05:11:51;100518.16;;;12.41;100.00
56070;BME280;41944;52.078;-0.058;2024-02-16T05:14:17;100543.06;;;12.51;100.00
56070;BME280;41944;52.078;-0.058;2024-02-16T05:16:45;100552.30;;;12.60;100.00
56070;BME280;41944;52.078;-0.058;2024-02-16T05:19:12;100549.51;;;12.57;100.00
56070;BME280;41944;52.078;-0.058;2024-02-16T05:21:40;100547.49;;;12.66;100.00
56070;BME280;41944;52.078;-0.058;2024-02-16T05:24:08;100560.38;;;12.54;100.00
56070;BME280;41944;52.078;-0.058;2024-02-16T05:26:34;100582.60;;;12.61;100.00
56070;BME280;41944;52.078;-0.058;2024-02-16T05:29:03;100598.26;;;12.58;100.00
56070;BME280;41944;52.078;-0.058;2024-02-16T05:31:30;100609.78;;;12.57;100.00
56070;BME280;41944;52.078;-0.058;2024-02-16T05:33:57;100615.64;;;12.62;100.00
56070;BME280;41944;52.078;-0.058;2024-02-16T05:36:23;100620.76;;;12.74;100.00
56070;BME280;41944;52.078;-0.058;2024-02-16T05:38:50;100623.50;;;12.87;100.00
56070;BME280;41944;52.078;-0.058;2024-02-16T05:41:17;100621.17;;;12.86;100.00
56070;BME280;41944;52.078;-0.058;2024-02-16T05:43:44;100624.61;;;12.83;100.00
56070;BME280;41944;52.078;-0.058;2024-02-16T05:46:13;100625.44;;;12.70;100.00
56070;BME280;41944;52.078;-0.058;2024-02-16T05:48:41;100627.25;;;12.52;100.00
56070;BME280;41944;52.078;-0.058;2024-02-16T05:51:08;100622.69;;;12.72;100.00
56070;BME280;41944;52.078;-0.058;2024-02-16T05:53:36;100628.87;;;12.77;100.00
56070;BME280;41944;52.078;-0.058;2024-02-16T05:56:03;100638.09;;;12.61;100.00
56070;BME280;41944;52.078;-0.058;2024-02-16T05:58:30;100638.74;;;12.47;100.00
56070;BME280;41944;52.078;-0.058;2024-02-16T06:00:57;100648.28;;;12.39;100.00
56070;BME280;41944;52.078;-0.058;2024-02-16T06:03:24;100652.19;;;12.43;100.00
56070;BME280;41944;52.078;-0.058;2024-02-16T06:05:51;100658.56;;;12.63;100.00
56070;BME280;41944;52.078;-0.058;2024-02-16T06:08:18;100662.04;;;12.67;100.00
56070;BME280;41944;52.078;-0.058;2024-02-16T06:10:45;100656.79;;;12.61;100.00
56070;BME280;41944;52.078;-0.058;2024-02-16T06:13:12;100659.60;;;12.54;100.00
56070;BME280;41944;52.078;-0.058;2024-02-16T06:15:38;100656.13;;;12.41;100.00
56070;BME280;41944;52.078;-0.058;2024-02-16T06:18:05;100656.76;;;12.41;100.00
56070;BME280;41944;52.078;-0.058;2024-02-16T06:20:32;100660.90;;;12.45;100.00
56070;BME280;41944;52.078;-0.058;2024-02-16T06:22:59;100664.98;;;12.18;100.00
56070;BME280;41944;52.078;-0.058;2024-02-16T06:25:26;100667.31;;;12.19;100.00
56070;BME280;41944;52.078;-0.058;2024-02-16T06:27:53;100665.44;;;12.10;100.00
56070;BME280;41944;52.078;-0.058;2024-02-16T06:30:20;100673.85;;;12.06;100.00
56070;BME280;41944;52.078;-0.058;2024-02-16T06:32:47;100680.83;;;12.09;100.00
56070;BME280;41944;52.078;-0.058;2024-02-16T06:35:14;100689.07;;;12.14;100.00
56070;BME280;41944;52.078;-0.058;2024-02-16T06:37:41;100695.80;;;12.11;100.00
56070;BME280;41944;52.078;-0.058;2024-02-16T06:40:09;100700.18;;;12.11;100.00
56070;BME280;41944;52.078;-0.058;2024-02-16T06:42:36;100704.63;;;12.12;100.00
56070;BME280;41944;52.078;-0.058;2024-02-16T06:45:03;100703.89;;;12.21;100.00
56070;BME280;41944;52.078;-0.058;2024-02-16T06:47:30;100704.41;;;12.20;100.00
56070;BME280;41944;52.078;-0.058;2024-02-16T06:49:57;100708.42;;;12.07;100.00
56070;BME280;41944;52.078;-0.058;2024-02-16T06:52:24;100712.28;;;12.21;100.00
56070;BME280;41944;52.078;-0.058;2024-02-16T06:54:51;100716.72;;;12.17;100.00
56070;BME280;41944;52.078;-0.058;2024-02-16T06:57:18;100716.49;;;12.31;100.00
56070;BME280;41944;52.078;-0.058;2024-02-16T06:59:45;100724.22;;;12.33;100.00
56070;BME280;41944;52.078;-0.058;2024-02-16T07:02:11;100732.72;;;12.26;100.00
56070;BME280;41944;52.078;-0.058;2024-02-16T07:04:40;100739.19;;;12.08;100.00
56070;BME280;41944;52.078;-0.058;2024-02-16T07:07:07;100742.68;;;12.12;100.00
56070;BME280;41944;52.078;-0.058;2024-02-16T07:09:34;100747.20;;;12.11;100.00
56070;BME280;41944;52.078;-0.058;2024-02-16T07:12:02;100748.65;;;12.03;100.00
56070;BME280;41944;52.078;-0.058;2024-02-16T07:14:28;100754.73;;;12.19;100.00
56070;BME280;41944;52.078;-0.058;2024-02-16T07:16:55;100764.22;;;12.23;100.00
56070;BME280;41944;52.078;-0.058;2024-02-16T07:19:22;100770.46;;;12.10;100.00
56070;BME280;41944;52.078;-0.058;2024-02-16T07:21:49;100774.11;;;12.16;100.00
56070;BME280;41944;52.078;-0.058;2024-02-16T07:24:16;100781.70;;;12.15;100.00
56070;BME280;41944;52.078;-0.058;2024-02-16T07:26:43;100786.76;;;12.11;100.00
56070;BME280;41944;52.078;-0.058;2024-02-16T07:29:09;100794.35;;;12.18;100.00
56070;BME280;41944;52.078;-0.058;2024-02-16T07:31:36;100805.53;;;11.93;100.00
56070;BME280;41944;52.078;-0.058;2024-02-16T07:34:03;100810.35;;;11.79;100.00
56070;BME280;41944;52.078;-0.058;2024-02-16T07:36:30;100812.18;;;11.90;100.00
56070;BME280;41944;52.078;-0.058;2024-02-16T07:38:58;100818.59;;;11.96;100.00
56070;BME280;41944;52.078;-0.058;2024-02-16T07:41:25;100829.29;;;11.95;100.00
56070;BME280;41944;52.078;-0.058;2024-02-16T07:43:52;100834.78;;;11.82;100.00
56070;BME280;41944;52.078;-0.058;2024-02-16T07:46:18;100840.94;;;11.82;100.00
56070;BME280;41944;52.078;-0.058;2024-02-16T07:48:45;100843.89;;;11.82;100.00
56070;BME280;41944;52.078;-0.058;2024-02-16T07:51:12;100850.23;;;11.83;100.00
56070;BME280;41944;52.078;-0.058;2024-02-16T07:53:39;100854.57;;;11.92;100.00
56070;BME280;41944;52.078;-0.058;2024-02-16T07:56:06;100860.76;;;12.02;100.00
56070;BME280;41944;52.078;-0.058;2024-02-16T07:58:34;100868.86;;;11.93;100.00
56070;BME280;41944;52.078;-0.058;2024-02-16T08:01:01;100872.46;;;11.90;100.00
56070;BME280;41944;52.078;-0.058;2024-02-16T08:03:27;100882.06;;;11.89;100.00
56070;BME280;41944;52.078;-0.058;2024-02-16T08:05:55;100885.89;;;11.87;100.00
56070;BME280;41944;52.078;-0.058;2024-02-16T08:08:23;100889.53;;;11.83;100.00
56070;BME280;41944;52.078;-0.058;2024-02-16T08:10:49;100890.48;;;11.90;100.00
56070;BME280;41944;52.078;-0.058;2024-02-16T08:13:18;100898.93;;;12.05;100.00
56070;BME280;41944;52.078;-0.058;2024-02-16T08:15:45;100906.97;;;12.12;100.00
56070;BME280;41944;52.078;-0.058;2024-02-16T08:18:12;100906.89;;;12.10;100.00
56070;BME280;41944;52.078;-0.058;2024-02-16T08:20:39;100915.84;;;12.17;100.00
56070;BME280;41944;52.078;-0.058;2024-02-16T08:23:06;100922.34;;;12.16;100.00
56070;BME280;41944;52.078;-0.058;2024-02-16T08:25:32;100925.56;;;12.25;100.00
56070;BME280;41944;52.078;-0.058;2024-02-16T08:27:59;100930.55;;;12.35;100.00
56070;BME280;41944;52.078;-0.058;2024-02-16T08:30:27;100932.71;;;12.37;100.00
56070;BME280;41944;52.078;-0.058;2024-02-16T08:32:55;100938.83;;;12.47;100.00
56070;BME280;41944;52.078;-0.058;2024-02-16T08:35:22;100944.93;;;12.53;100.00
56070;BME280;41944;52.078;-0.058;2024-02-16T08:37:48;100944.70;;;12.54;100.00
56070;BME280;41944;52.078;-0.058;2024-02-16T08:40:16;100951.56;;;12.63;100.00
56070;BME280;41944;52.078;-0.058;2024-02-16T08:42:43;100958.56;;;12.73;100.00
56070;BME280;41944;52.078;-0.058;2024-02-16T08:45:10;100959.20;;;12.76;100.00
56070;BME280;41944;52.078;-0.058;2024-02-16T08:47:37;100964.22;;;12.81;100.00
56070;BME280;41944;52.078;-0.058;2024-02-16T08:50:04;100959.40;;;12.80;100.00
56070;BME280;41944;52.078;-0.058;2024-02-16T08:52:31;100968.14;;;12.86;100.00
56070;BME280;41944;52.078;-0.058;2024-02-16T08:54:58;100969.59;;;12.95;100.00
56070;BME280;41944;52.078;-0.058;2024-02-16T08:57:25;100973.85;;;12.99;100.00
56070;BME280;41944;52.078;-0.058;2024-02-16T08:59:52;100976.63;;;13.09;100.00
56070;BME280;41944;52.078;-0.058;2024-02-16T09:02:19;100976.47;;;13.06;100.00
56070;BME280;41944;52.078;-0.058;2024-02-16T09:04:46;100981.76;;;13.01;100.00
56070;BME280;41944;52.078;-0.058;2024-02-16T09:07:13;100985.62;;;13.12;100.00
56070;BME280;41944;52.078;-0.058;2024-02-16T09:09:40;100988.90;;;13.19;100.00
56070;BME280;41944;52.078;-0.058;2024-02-16T09:12:08;100997.86;;;13.17;100.00
56070;BME280;41944;52.078;-0.058;2024-02-16T09:14:35;101001.55;;;13.16;100.00
56070;BME280;41944;52.078;-0.058;2024-02-16T09:17:02;101007.02;;;13.14;100.00
56070;BME280;41944;52.078;-0.058;2024-02-16T09:19:29;101008.96;;;13.18;100.00
56070;BME280;41944;52.078;-0.058;2024-02-16T09:21:56;101008.31;;;13.15;100.00
56070;BME280;41944;52.078;-0.058;2024-02-16T09:24:22;101011.37;;;13.08;100.00
56070;BME280;41944;52.078;-0.058;2024-02-16T09:26:49;101019.00;;;13.11;100.00
56070;BME280;41944;52.078;-0.058;2024-02-16T09:29:16;101017.52;;;13.27;100.00
56070;BME280;41944;52.078;-0.058;2024-02-16T09:31:43;101019.73;;;13.25;100.00
56070;BME280;41944;52.078;-0.058;2024-02-16T09:34:10;101023.70;;;13.27;100.00
56070;BME280;41944;52.078;-0.058;2024-02-16T09:36:37;101027.21;;;13.22;100.00
56070;BME280;41944;52.078;-0.058;2024-02-16T09:39:04;101031.91;;;13.29;99.89
56070;BME280;41944;52.078;-0.058;2024-02-16T09:41:34;101030.53;;;13.37;99.31
56070;BME280;41944;52.078;-0.058;2024-02-16T09:44:02;101033.11;;;13.34;97.72
56070;BME280;41944;52.078;-0.058;2024-02-16T09:46:30;101038.02;;;13.31;97.89
56070;BME280;41944;52.078;-0.058;2024-02-16T09:49:01;101041.35;;;13.36;97.97
56070;BME280;41944;52.078;-0.058;2024-02-16T09:51:29;101048.84;;;13.42;97.38
56070;BME280;41944;52.078;-0.058;2024-02-16T09:53:56;101055.43;;;13.57;97.06
56070;BME280;41944;52.078;-0.058;2024-02-16T09:56:23;101058.87;;;13.64;97.30
56070;BME280;41944;52.078;-0.058;2024-02-16T09:58:51;101062.05;;;13.76;95.53
56070;BME280;41944;52.078;-0.058;2024-02-16T10:01:19;101070.96;;;13.91;94.29
56070;BME280;41944;52.078;-0.058;2024-02-16T10:03:47;101074.87;;;13.94;94.43
56070;BME280;41944;52.078;-0.058;2024-02-16T10:06:14;101084.51;;;14.08;93.07
56070;BME280;41944;52.078;-0.058;2024-02-16T10:08:50;101089.82;;;14.10;93.69
56070;BME280;41944;52.078;-0.058;2024-02-16T10:11:18;101094.33;;;14.26;92.82
56070;BME280;41944;52.078;-0.058;2024-02-16T10:14:03;101102.16;;;14.29;92.13
56070;BME280;41944;52.078;-0.058;2024-02-16T10:16:30;101109.88;;;14.40;90.46
56070;BME280;41944;52.078;-0.058;2024-02-16T10:19:04;101115.39;;;14.32;91.01
56070;BME280;41944;52.078;-0.058;2024-02-16T10:21:32;101124.66;;;14.42;89.38
56070;BME280;41944;52.078;-0.058;2024-02-16T10:24:00;101125.52;;;14.44;89.39
56070;BME280;41944;52.078;-0.058;2024-02-16T10:26:28;101133.37;;;14.48;89.09
56070;BME280;41944;52.078;-0.058;2024-02-16T10:28:56;101138.67;;;14.48;87.92
56070;BME280;41944;52.078;-0.058;2024-02-16T10:31:25;101140.39;;;14.57;87.46
56070;BME280;41944;52.078;-0.058;2024-02-16T10:33:55;101148.67;;;14.62;86.87
56070;BME280;41944;52.078;-0.058;2024-02-16T10:36:25;101149.96;;;14.54;87.25
56070;BME280;41944;52.078;-0.058;2024-02-16T10:38:54;101158.02;;;14.53;87.40
56070;BME280;41944;52.078;-0.058;2024-02-16T10:41:26;101159.68;;;14.68;87.56
56070;BME280;41944;52.078;-0.058;2024-02-16T10:43:54;101165.27;;;14.75;87.80
56070;BME280;41944;52.078;-0.058;2024-02-16T10:46:22;101169.46;;;14.87;86.18
56070;BME280;41944;52.078;-0.058;2024-02-16T10:48:49;101172.28;;;14.89;86.89
56070;BME280;41944;52.078;-0.058;2024-02-16T10:51:20;101177.38;;;15.04;85.79
56070;BME280;41944;52.078;-0.058;2024-02-16T10:53:49;101188.06;;;15.02;85.68
56070;BME280;41944;52.078;-0.058;2024-02-16T10:56:27;101193.78;;;15.06;84.95
56070;BME280;41944;52.078;-0.058;2024-02-16T10:58:54;101197.29;;;15.08;84.89
56070;BME280;41944;52.078;-0.058;2024-02-16T11:01:21;101201.92;;;15.02;84.83
56070;BME280;41944;52.078;-0.058;2024-02-16T11:03:47;101205.04;;;15.10;85.28
56070;BME280;41944;52.078;-0.058;2024-02-16T11:06:15;101208.65;;;15.00;85.13
56070;BME280;41944;52.078;-0.058;2024-02-16T11:08:42;101209.17;;;14.95;83.51
56070;BME280;41944;52.078;-0.058;2024-02-16T11:11:10;101211.28;;;14.90;83.83
56070;BME280;41944;52.078;-0.058;2024-02-16T11:13:38;101216.81;;;14.86;84.14
56070;BME280;41944;52.078;-0.058;2024-02-16T11:16:07;101225.07;;;14.90;85.65
56070;BME280;41944;52.078;-0.058;2024-02-16T11:18:38;101231.08;;;15.00;84.69
56070;BME280;41944;52.078;-0.058;2024-02-16T11:21:05;101234.66;;;15.12;84.27
56070;BME280;41944;52.078;-0.058;2024-02-16T11:23:35;101236.69;;;15.23;82.23
56070;BME280;41944;52.078;-0.058;2024-02-16T11:26:03;101238.61;;;15.17;83.32
56070;BME280;41944;52.078;-0.058;2024-02-16T11:28:32;101240.87;;;15.16;82.99
56070;BME280;41944;52.078;-0.058;2024-02-16T11:31:00;101237.40;;;15.18;82.27
56070;BME280;41944;52.078;-0.058;2024-02-16T11:33:27;101236.82;;;15.19;81.65
56070;BME280;41944;52.078;-0.058;2024-02-16T11:35:55;101238.85;;;15.11;81.66
56070;BME280;41944;52.078;-0.058;2024-02-16T11:38:22;101239.76;;;15.15;81.53
56070;BME280;41944;52.078;-0.058;2024-02-16T11:40:55;101242.41;;;15.05;82.33
56070;BME280;41944;52.078;-0.058;2024-02-16T11:43:22;101239.59;;;15.10;83.15
56070;BME280;41944;52.078;-0.058;2024-02-16T11:45:50;101238.10;;;15.26;83.07
56070;BME280;41944;52.078;-0.058;2024-02-16T11:48:22;101236.44;;;15.42;82.37
56070;BME280;41944;52.078;-0.058;2024-02-16T11:50:49;101232.44;;;15.54;80.75
56070;BME280;41944;52.078;-0.058;2024-02-16T11:53:24;101234.32;;;15.64;79.26
56070;BME280;41944;52.078;-0.058;2024-02-16T11:55:51;101236.35;;;15.66;79.44
56070;BME280;41944;52.078;-0.058;2024-02-16T11:58:20;101242.10;;;15.78;79.06
56070;BME280;41944;52.078;-0.058;2024-02-16T12:00:48;101247.33;;;15.98;79.51
56070;BME280;41944;52.078;-0.058;2024-02-16T12:03:18;101245.16;;;16.12;76.46
56070;BME280;41944;52.078;-0.058;2024-02-16T12:05:51;101242.07;;;16.13;76.57
56070;BME280;41944;52.078;-0.058;2024-02-16T12:08:18;101249.40;;;16.31;74.85
56070;BME280;41944;52.078;-0.058;2024-02-16T12:10:46;101251.77;;;16.26;75.81
56070;BME280;41944;52.078;-0.058;2024-02-16T12:13:13;101249.85;;;16.22;75.37
56070;BME280;41944;52.078;-0.058;2024-02-16T12:15:41;101250.93;;;16.41;73.89
56070;BME280;41944;52.078;-0.058;2024-02-16T12:18:08;101251.87;;;16.43;74.38
56070;BME280;41944;52.078;-0.058;2024-02-16T12:20:35;101254.72;;;16.45;74.80
56070;BME280;41944;52.078;-0.058;2024-02-16T12:23:11;101255.45;;;16.42;74.55
56070;BME280;41944;52.078;-0.058;2024-02-16T12:25:38;101255.59;;;16.48;73.85
56070;BME280;41944;52.078;-0.058;2024-02-16T12:28:05;101252.75;;;16.41;73.86
56070;BME280;41944;52.078;-0.058;2024-02-16T12:30:33;101254.82;;;16.50;73.86
56070;BME280;41944;52.078;-0.058;2024-02-16T12:32:59;101256.09;;;16.44;73.83